createdAt,value
2023-04-25T00:00:27.262Z,29.83
2023-04-25T00:02:58.234Z,29.89
2023-04-25T00:05:27.806Z,30.04
2023-04-25T00:07:55.920Z,29.88
2023-04-25T00:10:23.981Z,29.82
2023-04-25T00:12:52.705Z,30.02
2023-04-25T00:15:20.738Z,29.92
2023-04-25T00:17:49.134Z,29.91
2023-04-25T00:20:18.559Z,29.80
2023-04-25T00:22:46.476Z,30.04
2023-04-25T00:25:14.414Z,30.06
2023-04-25T00:27:42.869Z,30.04
2023-04-25T00:30:12.079Z,30.00
2023-04-25T00:32:40.123Z,30.10
2023-04-25T00:35:08.546Z,30.05
2023-04-25T00:37:38.124Z,29.90
2023-04-25T00:40:08.990Z,30.00
2023-04-25T00:42:37.972Z,30.02
2023-04-25T00:45:08.643Z,30.08
2023-04-25T00:47:38.412Z,30.13
2023-04-25T00:50:07.781Z,29.87
2023-04-25T00:52:37.851Z,30.02
2023-04-25T00:55:06.300Z,29.96
2023-04-25T00:57:34.417Z,29.93
2023-04-25T01:00:02.934Z,30.15
2023-04-25T01:02:31.636Z,30.17
2023-04-25T01:04:59.906Z,29.93
2023-04-25T01:07:28.246Z,29.93
2023-04-25T01:09:57.888Z,30.16
2023-04-25T01:12:26.276Z,30.11
2023-04-25T01:14:54.425Z,29.82
2023-04-25T01:17:22.500Z,30.11
2023-04-25T01:19:52.454Z,30.14
2023-04-25T01:22:21.979Z,29.95
2023-04-25T01:24:50.575Z,30.22
2023-04-25T01:27:19.187Z,30.23
2023-04-25T01:29:47.895Z,30.16
2023-04-25T01:32:16.736Z,30.10
2023-04-25T01:34:44.842Z,30.17
2023-04-25T01:37:12.953Z,30.20
2023-04-25T01:39:42.934Z,30.28
2023-04-25T01:42:11.196Z,30.31
2023-04-25T01:44:39.259Z,30.13
2023-04-25T01:47:07.206Z,30.04
2023-04-25T01:49:35.396Z,30.20
2023-04-25T01:52:03.612Z,30.01
2023-04-25T01:54:31.635Z,30.04
2023-04-25T01:57:02.738Z,30.27
2023-04-25T01:59:31.504Z,30.14
2023-04-25T02:02:18.157Z,30.14
2023-04-25T02:04:46.448Z,30.27
2023-04-25T02:07:15.309Z,30.08
2023-04-25T02:09:54.430Z,30.07
2023-04-25T02:12:27.345Z,30.12
2023-04-25T02:15:14.302Z,30.13
2023-04-25T02:17:46.246Z,30.26
2023-04-25T02:20:14.732Z,30.23
2023-04-25T02:22:42.989Z,30.05
2023-04-25T02:25:12.550Z,30.27
2023-04-25T02:27:42.005Z,30.18
2023-04-25T02:30:10.777Z,30.23
2023-04-25T02:32:38.923Z,30.12
2023-04-25T02:35:07.696Z,30.35
2023-04-25T02:37:36.900Z,30.24
2023-04-25T02:40:05.989Z,30.13
2023-04-25T02:42:34.671Z,30.28
2023-04-25T02:45:04.498Z,30.21
2023-04-25T02:47:32.760Z,30.34
2023-04-25T02:50:00.899Z,30.34
2023-04-25T02:52:29.053Z,30.24
2023-04-25T02:55:04.938Z,30.28
2023-04-25T02:57:33.871Z,30.08
2023-04-25T03:00:05.101Z,30.32
2023-04-25T03:02:33.242Z,30.05
2023-04-25T03:05:01.529Z,30.24
2023-04-25T03:07:30.328Z,30.15
2023-04-25T03:09:58.513Z,30.31
2023-04-25T03:12:27.080Z,30.21
2023-04-25T03:14:55.291Z,30.18
2023-04-25T03:17:24.660Z,30.39
2023-04-25T03:19:52.867Z,30.33
2023-04-25T03:22:21.047Z,30.25
2023-04-25T03:24:49.237Z,30.22
2023-04-25T03:27:17.512Z,30.33
2023-04-25T03:29:45.554Z,30.36
2023-04-25T03:32:13.820Z,30.17
2023-04-25T03:34:43.415Z,30.29
2023-04-25T03:37:11.531Z,30.33
2023-04-25T03:39:40.278Z,30.30
2023-04-25T03:42:08.830Z,30.27
2023-04-25T03:44:36.996Z,30.25
2023-04-25T03:47:05.499Z,30.42
2023-04-25T03:49:34.625Z,30.28
2023-04-25T03:52:05.750Z,30.36
2023-04-25T03:54:40.370Z,30.28
2023-04-25T03:57:20.412Z,30.31
2023-04-25T03:59:48.699Z,30.44
2023-04-25T04:02:17.675Z,30.31
2023-04-25T04:04:46.608Z,30.38
2023-04-25T04:07:16.761Z,30.30
2023-04-25T04:09:51.092Z,30.41
2023-04-25T04:12:27.643Z,30.38
2023-04-25T04:14:55.803Z,30.40
2023-04-25T04:17:23.832Z,30.54
2023-04-25T04:19:53.226Z,30.37
2023-04-25T04:22:24.028Z,30.38
2023-04-25T04:24:55.318Z,30.59
2023-04-25T04:27:41.575Z,30.43
2023-04-25T04:30:24.980Z,30.40
2023-04-25T04:32:59.909Z,30.50
2023-04-25T04:35:28.091Z,30.34
2023-04-25T04:37:57.494Z,30.52
2023-04-25T04:40:28.618Z,30.37
2023-04-25T04:43:06.804Z,30.45
2023-04-25T04:45:47.665Z,30.46
2023-04-25T04:48:35.115Z,30.40
2023-04-25T04:51:22.303Z,30.32
2023-04-25T04:53:59.407Z,30.37
2023-04-25T04:56:53.400Z,30.46
2023-04-25T04:59:27.717Z,30.55
2023-04-25T05:02:14.515Z,30.47
2023-04-25T05:04:53.669Z,30.41
2023-04-25T05:07:27.615Z,30.31
2023-04-25T05:10:08.714Z,30.51
2023-04-25T05:13:03.883Z,30.32
2023-04-25T05:15:46.524Z,30.47
2023-04-25T05:18:37.396Z,30.30
2023-04-25T05:21:32.431Z,30.58
2023-04-25T05:24:20.780Z,30.48
2023-04-25T05:27:06.404Z,30.46
2023-04-25T05:30:07.136Z,30.42
2023-04-25T05:32:51.457Z,30.53
2023-04-25T05:35:20.182Z,30.57
2023-04-25T05:37:50.160Z,30.48
2023-04-25T05:40:18.456Z,30.82
2023-04-25T05:42:47.831Z,30.74
2023-04-25T05:45:21.787Z,30.66
2023-04-25T05:48:28.313Z,30.69
2023-04-25T05:51:19.927Z,30.56
2023-04-25T05:54:08.292Z,30.66
2023-04-25T05:56:36.738Z,30.65
2023-04-25T05:59:06.109Z,30.65
2023-04-25T06:01:34.164Z,30.71
2023-04-25T06:04:02.889Z,30.62
2023-04-25T06:06:31.359Z,30.70
2023-04-25T06:09:01.446Z,30.84
2023-04-25T06:11:29.411Z,30.64
2023-04-25T06:13:57.484Z,30.68
2023-04-25T06:16:27.687Z,30.84
2023-04-25T06:18:55.925Z,30.72
2023-04-25T06:21:23.953Z,30.85
2023-04-25T06:23:53.434Z,30.73
2023-04-25T06:26:24.966Z,30.90
2023-04-25T06:28:53.834Z,30.76
2023-04-25T06:31:21.838Z,30.66
2023-04-25T06:33:55.584Z,30.72
2023-04-25T06:36:26.884Z,30.77
2023-04-25T06:38:58.145Z,30.80
2023-04-25T06:41:26.202Z,30.93
2023-04-25T06:43:56.399Z,30.83
2023-04-25T06:46:29.431Z,30.81
2023-04-25T06:49:01.324Z,30.82
2023-04-25T06:51:30.992Z,30.98
2023-04-25T06:53:59.894Z,30.93
2023-04-25T06:56:33.522Z,30.77
2023-04-25T06:59:09.346Z,30.94
2023-04-25T07:01:39.718Z,31.12
2023-04-25T07:04:14.185Z,30.94
2023-04-25T07:06:49.339Z,31.00
2023-04-25T07:09:20.439Z,31.04
2023-04-25T07:11:50.799Z,30.97
2023-04-25T07:14:19.036Z,31.04
2023-04-25T07:16:47.705Z,31.12
2023-04-25T07:19:17.173Z,31.19
2023-04-25T07:21:45.340Z,31.38
2023-04-25T07:24:13.937Z,31.50
2023-04-25T07:26:46.563Z,31.50
2023-04-25T07:29:38.382Z,31.14
2023-04-25T07:32:06.797Z,31.12
2023-04-25T07:34:38.267Z,31.29
2023-04-25T07:37:06.415Z,31.30
2023-04-25T07:39:42.974Z,31.14
2023-04-25T07:42:11.311Z,31.23
2023-04-25T07:44:43.353Z,31.50
2023-04-25T07:47:14.092Z,31.14
2023-04-25T07:49:44.277Z,31.16
2023-04-25T07:52:12.331Z,31.41
2023-04-25T07:54:44.421Z,31.32
2023-04-25T07:57:19.471Z,31.21
2023-04-25T07:59:48.974Z,31.17
2023-04-25T08:02:17.534Z,31.08
2023-04-25T08:04:48.011Z,30.84
2023-04-25T08:07:19.040Z,31.16
2023-04-25T08:09:52.060Z,31.21
2023-04-25T08:12:26.327Z,31.20
2023-04-25T08:14:54.967Z,30.72
2023-04-25T08:17:25.604Z,31.14
2023-04-25T08:19:55.143Z,30.77
2023-04-25T08:22:28.152Z,30.69
2023-04-25T08:25:12.690Z,30.66
2023-04-25T08:27:41.971Z,30.79
2023-04-25T08:30:11.370Z,31.07
2023-04-25T08:32:41.234Z,30.92
2023-04-25T08:35:45.132Z,30.69
2023-04-25T08:38:13.633Z,30.81
2023-04-25T08:40:42.265Z,30.96
2023-04-25T08:43:16.147Z,30.83
2023-04-25T08:45:44.516Z,31.05
2023-04-25T08:48:19.294Z,31.00
2023-04-25T08:50:53.036Z,31.15
2023-04-25T08:53:28.303Z,31.02
2023-04-25T08:55:59.476Z,31.04
2023-04-25T08:58:27.904Z,31.45
2023-04-25T09:00:56.102Z,31.30
2023-04-25T09:03:28.099Z,31.35
2023-04-25T09:05:58.873Z,31.41
2023-04-25T09:08:27.073Z,32.15
2023-04-25T09:10:55.124Z,31.98
2023-04-25T09:13:28.698Z,32.99
2023-04-25T09:16:15.688Z,33.48
2023-04-25T09:19:04.158Z,34.34
2023-04-25T09:21:37.237Z,35.61
2023-04-25T09:24:06.759Z,36.35
2023-04-25T09:26:34.873Z,37.56
2023-04-25T09:29:08.278Z,38.64
2023-04-25T09:31:39.047Z,38.75
2023-04-25T09:34:12.938Z,39.21
2023-04-25T09:36:47.433Z,39.82
2023-04-25T09:39:20.537Z,40.22
2023-04-25T09:41:56.119Z,40.38
2023-04-25T09:44:25.916Z,40.93
2023-04-25T09:46:55.512Z,41.62
2023-04-25T09:49:28.105Z,42.07
2023-04-25T09:52:05.911Z,42.33
2023-04-25T09:54:46.707Z,42.43
2023-04-25T09:57:20.165Z,42.42
2023-04-25T09:59:50.820Z,41.96
2023-04-25T10:02:21.274Z,41.36
2023-04-25T10:04:53.818Z,40.68
2023-04-25T10:07:39.313Z,40.25
2023-04-25T10:10:15.298Z,39.92
2023-04-25T10:12:45.304Z,39.65
2023-04-25T10:15:14.522Z,39.05
2023-04-25T10:17:42.617Z,38.78
2023-04-25T10:20:12.488Z,38.21
2023-04-25T10:22:44.341Z,37.86
2023-04-25T10:25:13.282Z,37.38
2023-04-25T10:27:41.601Z,37.22
2023-04-25T10:30:13.602Z,37.14
2023-04-25T10:32:41.730Z,37.08
2023-04-25T10:35:14.681Z,36.78
2023-04-25T10:38:04.752Z,36.53
2023-04-25T10:40:33.185Z,36.62
2023-04-25T10:43:34.254Z,36.22
2023-04-25T10:46:02.497Z,36.20
2023-04-25T10:48:31.720Z,36.02
2023-04-25T10:51:12.164Z,35.93
2023-04-25T10:53:41.590Z,36.14
2023-04-25T10:56:14.552Z,36.10
2023-04-25T10:58:46.452Z,36.31
2023-04-25T11:01:15.561Z,36.82
2023-04-25T11:03:46.284Z,36.94
2023-04-25T11:06:24.491Z,36.96
2023-04-25T11:08:54.345Z,36.74
2023-04-25T11:11:22.563Z,36.82
2023-04-25T11:13:51.589Z,36.35
2023-04-25T11:16:27.519Z,36.40
2023-04-25T11:18:59.149Z,36.24
2023-04-25T11:21:28.823Z,35.89
2023-04-25T11:23:58.653Z,35.75
2023-04-25T11:26:27.325Z,35.65
2023-04-25T11:28:59.538Z,35.42
2023-04-25T11:31:27.840Z,35.35
2023-04-25T11:33:56.795Z,35.41
2023-04-25T11:36:25.054Z,35.03
2023-04-25T11:38:53.883Z,34.72
2023-04-25T11:41:23.540Z,35.10
2023-04-25T11:43:53.153Z,34.87
2023-04-25T11:46:21.948Z,34.60
2023-04-25T11:48:51.889Z,34.66
2023-04-25T11:51:20.277Z,34.82
2023-04-25T11:53:48.311Z,34.53
2023-04-25T11:56:16.313Z,34.55
2023-04-25T11:58:59.082Z,34.56
2023-04-25T12:01:35.555Z,34.42
2023-04-25T12:04:14.137Z,34.36
2023-04-25T12:06:43.620Z,34.49
2023-04-25T12:09:14.270Z,34.33
2023-04-25T12:11:46.806Z,34.35
2023-04-25T12:14:25.210Z,34.23
2023-04-25T12:16:53.609Z,34.43
2023-04-25T12:19:22.411Z,34.09
2023-04-25T12:21:58.037Z,34.15
2023-04-25T12:24:29.270Z,33.85
2023-04-25T12:27:02.451Z,34.13
2023-04-25T12:29:42.047Z,34.15
2023-04-25T12:32:17.022Z,34.13
2023-04-25T12:34:45.249Z,34.21
2023-04-25T12:37:13.582Z,33.98
2023-04-25T12:39:41.648Z,34.00
2023-04-25T12:42:12.531Z,34.13
2023-04-25T12:44:42.488Z,34.18
2023-04-25T12:47:11.099Z,33.86
2023-04-25T12:49:39.317Z,33.82
2023-04-25T12:52:07.370Z,34.02
2023-04-25T12:54:35.316Z,33.92
2023-04-25T12:57:04.165Z,33.76
2023-04-25T12:59:32.294Z,33.77
2023-04-25T13:02:01.789Z,34.12
2023-04-25T13:04:30.135Z,33.70
2023-04-25T13:06:58.416Z,33.84
2023-04-25T13:09:26.447Z,33.96
2023-04-25T13:11:56.311Z,33.96
2023-04-25T13:14:26.401Z,33.71
2023-04-25T13:16:55.340Z,33.58
2023-04-25T13:19:25.086Z,33.66
2023-04-25T13:21:53.190Z,33.84
2023-04-25T13:24:21.496Z,33.76
2023-04-25T13:26:49.836Z,33.71
2023-04-25T13:29:17.903Z,33.44
2023-04-25T13:31:46.025Z,33.50
2023-04-25T13:34:14.174Z,33.52
2023-04-25T13:36:43.576Z,33.53
2023-04-25T13:39:13.263Z,33.79
2023-04-25T13:41:41.829Z,33.49
2023-04-25T13:44:09.880Z,33.39
2023-04-25T13:49:12.898Z,33.25
2023-04-25T13:51:43.288Z,33.50
2023-04-25T13:54:11.607Z,33.68
2023-04-25T13:56:39.650Z,33.54
2023-04-25T13:59:07.985Z,33.35
2023-04-25T14:01:36.762Z,33.61
2023-04-25T14:04:06.204Z,33.55
2023-04-25T14:06:34.614Z,33.58
2023-04-25T14:09:05.406Z,33.56
2023-04-25T14:11:33.663Z,33.59
2023-04-25T14:14:01.719Z,33.52
2023-04-25T14:16:29.974Z,33.53
2023-04-25T14:18:58.887Z,33.58
2023-04-25T14:21:27.944Z,33.31
2023-04-25T14:23:55.922Z,33.63
2023-04-25T14:26:25.492Z,33.30
2023-04-25T14:28:53.883Z,33.61
2023-04-25T14:31:22.105Z,33.59
2023-04-25T14:33:50.304Z,33.51
2023-04-25T14:36:18.837Z,33.63
2023-04-25T14:38:46.834Z,33.39
2023-04-25T14:41:14.930Z,33.89
2023-04-25T14:43:44.226Z,33.74
2023-04-25T14:46:13.033Z,33.61
2023-04-25T14:48:41.281Z,33.72
2023-04-25T14:51:09.357Z,33.70
2023-04-25T14:53:37.813Z,33.67
2023-04-25T14:56:06.602Z,33.71
2023-04-25T14:58:34.713Z,33.75
2023-04-25T15:01:04.221Z,33.75
2023-04-25T15:03:33.048Z,33.86
2023-04-25T15:06:01.197Z,33.71
2023-04-25T15:08:29.284Z,33.75
2023-04-25T15:10:57.436Z,33.56
2023-04-25T15:13:25.896Z,34.02
2023-04-25T15:15:55.246Z,34.46
2023-04-25T15:18:25.165Z,34.73
2023-04-25T15:20:54.114Z,34.81
2023-04-25T15:23:23.368Z,34.78
2023-04-25T15:25:52.515Z,34.97
2023-04-25T15:28:22.331Z,34.85
2023-04-25T15:30:51.447Z,34.86
2023-04-25T15:33:19.487Z,34.84
2023-04-25T15:35:48.998Z,34.82
2023-04-25T15:38:17.089Z,35.05
2023-04-25T15:40:45.241Z,34.67
2023-04-25T15:43:16.108Z,34.79
2023-04-25T15:45:45.490Z,35.16
2023-04-25T15:48:13.786Z,34.78
2023-04-25T15:50:42.473Z,34.91
2023-04-25T15:53:12.377Z,34.98
2023-04-25T15:55:40.555Z,34.80
2023-04-25T15:58:10.071Z,34.61
2023-04-25T16:00:40.452Z,34.94
2023-04-25T16:03:09.595Z,35.05
2023-04-25T16:05:38.612Z,34.96
2023-04-25T16:08:06.704Z,34.96
2023-04-25T16:10:36.752Z,34.87
2023-04-25T16:13:04.758Z,34.90
2023-04-25T16:15:35.158Z,34.99
2023-04-25T16:18:03.883Z,34.62
2023-04-25T16:20:32.002Z,34.71
2023-04-25T16:23:00.377Z,34.59
2023-04-25T16:25:28.414Z,34.96
2023-04-25T16:27:57.905Z,34.86
2023-04-25T16:30:26.351Z,34.51
2023-04-25T16:32:57.149Z,34.81
2023-04-25T16:35:25.741Z,34.71
2023-04-25T16:37:53.680Z,34.36
2023-04-25T16:40:21.721Z,34.51
2023-04-25T16:42:49.839Z,34.64
2023-04-25T16:45:20.335Z,34.42
2023-04-25T16:47:48.441Z,34.29
2023-04-25T16:50:17.183Z,34.55
2023-04-25T16:52:45.190Z,34.49
2023-04-25T16:55:13.140Z,34.48
2023-04-25T16:57:41.279Z,34.27
2023-04-25T17:00:10.752Z,34.01
2023-04-25T17:02:40.463Z,34.16
2023-04-25T17:05:09.169Z,34.25
2023-04-25T17:07:37.155Z,34.40
2023-04-25T17:10:05.991Z,34.40
2023-04-25T17:12:34.367Z,34.38
2023-04-25T17:15:02.421Z,34.42
2023-04-25T17:17:30.697Z,34.18
2023-04-25T17:20:00.256Z,34.15
2023-04-25T17:22:28.300Z,34.05
2023-04-25T17:24:56.321Z,34.05
2023-04-25T17:27:24.326Z,33.95
2023-04-25T17:29:52.310Z,34.18
2023-04-25T17:32:20.197Z,34.35
2023-04-25T17:34:48.203Z,34.25
2023-04-25T17:37:18.139Z,34.12
2023-04-25T17:39:46.854Z,34.30
2023-04-25T17:42:15.071Z,34.37
2023-04-25T17:44:43.689Z,34.46
2023-04-25T17:47:11.815Z,34.46
2023-04-25T17:49:39.868Z,34.41
2023-04-25T17:52:07.995Z,34.52
2023-04-25T17:54:37.351Z,34.54
2023-04-25T17:57:05.608Z,34.58
2023-04-25T17:59:33.781Z,34.56
2023-04-25T18:02:02.059Z,34.48
2023-04-25T18:04:30.150Z,34.60
2023-04-25T18:06:58.201Z,34.47
2023-04-25T18:09:26.505Z,34.50
2023-04-25T18:11:56.436Z,34.29
2023-04-25T18:14:25.052Z,34.28
2023-04-25T18:16:54.803Z,34.33
2023-04-25T18:19:23.396Z,34.59
2023-04-25T18:21:54.294Z,34.51
2023-04-25T18:24:24.514Z,34.24
2023-04-25T18:26:54.272Z,34.22
2023-04-25T18:29:32.967Z,34.62
2023-04-25T18:32:02.148Z,34.31
2023-04-25T18:34:30.234Z,34.42
2023-04-25T18:36:58.185Z,34.40
2023-04-25T18:39:26.414Z,34.41
2023-04-25T18:42:00.036Z,34.39
2023-04-25T18:44:33.721Z,35.38
2023-04-25T18:47:02.043Z,36.40
2023-04-25T18:49:29.906Z,37.29
2023-04-25T18:51:58.707Z,37.87
2023-04-25T18:54:26.780Z,37.68
2023-04-25T18:56:55.725Z,37.35
2023-04-25T18:59:26.358Z,37.40
2023-04-25T19:01:56.036Z,37.32
2023-04-25T19:04:24.192Z,37.18
2023-04-25T19:06:52.356Z,36.62
2023-04-25T19:09:20.302Z,36.84
2023-04-25T19:11:48.467Z,36.21
2023-04-25T19:14:16.538Z,36.31
2023-04-25T19:16:44.548Z,36.10
2023-04-25T19:19:14.137Z,36.02
2023-04-25T19:21:42.692Z,36.18
2023-04-25T19:24:11.387Z,35.86
2023-04-25T19:26:39.427Z,36.15
2023-04-25T19:29:09.314Z,35.72
2023-04-25T19:31:38.711Z,36.01
2023-04-25T19:34:07.694Z,35.87
2023-04-25T19:36:39.103Z,35.50
2023-04-25T19:39:07.295Z,35.36
2023-04-25T19:41:38.409Z,35.72
2023-04-25T19:44:08.442Z,35.70
2023-04-25T19:46:37.787Z,35.80
2023-04-25T19:49:07.705Z,35.63
2023-04-25T19:51:37.795Z,35.69
2023-04-25T19:54:06.209Z,35.28
2023-04-25T19:56:34.320Z,35.58
2023-04-25T19:59:02.418Z,35.30
2023-04-25T20:01:30.705Z,35.49
2023-04-25T20:03:58.719Z,35.24
2023-04-25T20:06:27.291Z,35.31
2023-04-25T20:08:57.031Z,34.88
2023-04-25T20:11:28.557Z,34.86
2023-04-25T20:13:57.407Z,34.85
2023-04-25T20:16:25.626Z,35.20
2023-04-25T20:18:54.560Z,34.79
2023-04-25T20:21:23.563Z,34.97
2023-04-25T20:23:51.910Z,34.78
2023-04-25T20:26:22.756Z,35.00
2023-04-25T20:28:51.574Z,34.84
2023-04-25T20:31:20.147Z,34.83
2023-04-25T20:33:48.976Z,34.70
2023-04-25T20:36:16.901Z,34.43
2023-04-25T20:38:44.924Z,34.43
2023-04-25T20:41:13.439Z,34.80
2023-04-25T20:43:43.029Z,34.33
2023-04-25T20:46:11.430Z,34.74
2023-04-25T20:48:39.416Z,34.76
2023-04-25T20:51:08.812Z,34.54
2023-04-25T20:53:36.839Z,34.42
2023-04-25T20:56:06.324Z,34.19
2023-04-25T20:58:34.428Z,34.44
2023-04-25T21:01:06.881Z,34.47
2023-04-25T21:03:35.671Z,34.52
2023-04-25T21:06:03.834Z,34.57
2023-04-25T21:08:32.056Z,34.15
2023-04-25T21:11:00.102Z,34.34
2023-04-25T21:13:29.103Z,34.47
2023-04-25T21:15:58.318Z,34.46
2023-04-25T21:18:27.800Z,34.07
2023-04-25T21:20:55.830Z,34.33
2023-04-25T21:23:23.784Z,34.53
2023-04-25T21:25:53.479Z,34.21
2023-04-25T21:28:21.830Z,34.10
2023-04-25T21:30:49.863Z,34.02
2023-04-25T21:33:18.407Z,34.36
2023-04-25T21:35:47.863Z,34.34
2023-04-25T21:38:16.261Z,34.26
2023-04-25T21:40:44.373Z,34.05
2023-04-25T21:43:12.517Z,34.24
2023-04-25T21:46:05.717Z,34.22
2023-04-25T21:48:28.503Z,34.14
2023-04-25T21:50:57.961Z,34.04
2023-04-25T21:53:26.740Z,34.12
2023-04-25T21:55:54.725Z,34.33
2023-04-25T21:58:22.702Z,34.28
2023-04-25T22:00:50.949Z,34.03
2023-04-25T22:03:20.276Z,33.99
2023-04-25T22:05:48.655Z,34.23
2023-04-25T22:08:18.051Z,33.80
2023-04-25T22:10:46.326Z,34.12
2023-04-25T22:13:15.288Z,34.13
2023-04-25T22:15:43.368Z,33.86
2023-04-25T22:18:12.912Z,33.87
2023-04-25T22:20:41.059Z,33.73
2023-04-25T22:23:09.579Z,34.01
2023-04-25T22:25:38.970Z,33.78
2023-04-25T22:28:07.104Z,33.96
2023-04-25T22:30:37.178Z,33.99
2023-04-25T22:33:05.160Z,33.88
2023-04-25T22:35:33.188Z,33.88
2023-04-25T22:38:01.649Z,33.66
2023-04-25T22:40:29.626Z,33.74
2023-04-25T22:42:59.064Z,33.73
2023-04-25T22:45:27.346Z,33.98
2023-04-25T22:47:55.450Z,33.61
2023-04-25T22:50:23.632Z,33.99
2023-04-25T22:52:51.616Z,33.85
2023-04-25T22:55:19.599Z,33.93
2023-04-25T22:57:47.636Z,33.71
2023-04-25T23:00:20.286Z,33.44
2023-04-25T23:02:49.775Z,33.55
2023-04-25T23:05:18.432Z,33.73
2023-04-25T23:07:46.439Z,33.81
2023-04-25T23:10:14.889Z,33.95
2023-04-25T23:12:43.061Z,33.72
2023-04-25T23:15:13.198Z,33.63
2023-04-25T23:17:43.487Z,33.79
2023-04-25T23:20:12.419Z,34.00
2023-04-25T23:22:40.748Z,34.01
2023-04-25T23:25:10.458Z,33.62
2023-04-25T23:27:38.536Z,33.68
2023-04-25T23:30:08.730Z,33.95
2023-04-25T23:32:37.081Z,33.76
2023-04-25T23:35:07.881Z,34.04
2023-04-25T23:37:37.181Z,33.95
2023-04-25T23:40:10.051Z,34.02
2023-04-25T23:42:38.655Z,34.07
2023-04-25T23:45:08.333Z,33.69
2023-04-25T23:47:37.558Z,33.67
2023-04-25T23:50:08.457Z,33.74
2023-04-25T23:52:36.696Z,34.02
2023-04-25T23:55:05.421Z,33.85
2023-04-25T23:57:33.659Z,34.03
